createdAt,value
2023-02-26T00:02:00.933Z,5.81
2023-02-26T00:05:59.122Z,5.79
2023-02-26T00:10:01.138Z,5.57
2023-02-26T00:13:54.756Z,5.58
2023-02-26T00:17:58.795Z,5.62
2023-02-26T00:21:57.166Z,5.74
2023-02-26T00:25:59.300Z,5.63
2023-02-26T00:29:57.305Z,5.60
2023-02-26T00:34:01.711Z,5.61
2023-02-26T00:38:01.281Z,5.63
2023-02-26T00:41:58.713Z,5.59
2023-02-26T00:45:52.191Z,5.51
2023-02-26T00:49:28.755Z,5.47
2023-02-26T00:53:34.385Z,5.55
2023-02-26T00:57:32.273Z,5.51
2023-02-26T01:01:34.190Z,5.57
2023-02-26T01:05:30.076Z,5.60
2023-02-26T01:09:29.616Z,5.74
2023-02-26T01:13:25.976Z,5.76
2023-02-26T01:17:29.553Z,5.84
2023-02-26T01:21:30.492Z,5.73
2023-02-26T01:25:29.931Z,5.85
2023-02-26T01:29:26.240Z,5.65
2023-02-26T01:33:25.635Z,5.61
2023-02-26T01:37:22.052Z,5.81
2023-02-26T01:41:19.134Z,5.82
2023-02-26T01:45:12.345Z,5.85
2023-02-26T01:49:15.635Z,5.89
2023-02-26T01:53:12.301Z,5.84
2023-02-26T01:57:11.807Z,6.06
2023-02-26T02:01:10.032Z,6.21
2023-02-26T02:05:09.378Z,6.25
2023-02-26T02:09:02.617Z,6.27
2023-02-26T02:13:00.387Z,6.25
2023-02-26T02:16:56.046Z,6.32
2023-02-26T02:20:55.730Z,6.27
2023-02-26T02:24:51.097Z,6.31
2023-02-26T02:28:52.839Z,6.45
2023-02-26T02:32:50.140Z,6.52
2023-02-26T02:36:48.706Z,6.62
2023-02-26T02:40:41.982Z,6.69
2023-02-26T02:44:41.683Z,6.82
2023-02-26T02:48:37.375Z,6.93
2023-02-26T02:52:36.539Z,6.84
2023-02-26T02:56:33.115Z,6.88
2023-02-26T03:00:33.671Z,6.75
2023-02-26T03:04:27.646Z,6.80
2023-02-26T03:08:31.200Z,6.73
2023-02-26T03:12:26.762Z,6.70
2023-02-26T03:16:28.305Z,6.69
2023-02-26T03:20:24.289Z,6.82
2023-02-26T03:24:25.711Z,6.62
2023-02-26T03:28:21.176Z,6.59
2023-02-26T03:32:19.773Z,6.69
2023-02-26T03:36:21.013Z,6.72
2023-02-26T03:40:29.468Z,6.70
2023-02-26T03:44:25.382Z,6.64
2023-02-26T03:48:25.807Z,6.68
2023-02-26T03:52:23.379Z,6.77
2023-02-26T03:56:50.129Z,6.50
2023-02-26T04:01:06.314Z,6.43
2023-02-26T04:05:06.018Z,6.50
2023-02-26T04:09:02.505Z,6.55
2023-02-26T04:13:02.939Z,6.52
2023-02-26T04:16:55.974Z,6.53
2023-02-26T04:21:00.576Z,6.67
2023-02-26T04:24:56.534Z,6.72
2023-02-26T04:28:58.007Z,6.67
2023-02-26T04:32:54.536Z,6.68
2023-02-26T04:36:53.983Z,6.76
2023-02-26T04:40:50.560Z,6.86
2023-02-26T04:44:48.888Z,6.81
2023-02-26T04:48:49.180Z,6.99
2023-02-26T04:52:55.968Z,6.97
2023-02-26T04:56:53.649Z,6.98
2023-02-26T05:00:53.867Z,7.14
2023-02-26T05:04:49.652Z,7.22
2023-02-26T05:08:59.803Z,7.21
2023-02-26T05:12:59.703Z,7.26
2023-02-26T05:16:59.923Z,7.22
2023-02-26T05:20:57.016Z,7.18
2023-02-26T05:24:57.236Z,7.15
2023-02-26T05:28:50.654Z,7.18
2023-02-26T05:32:50.162Z,7.08
2023-02-26T05:36:46.716Z,7.14
2023-02-26T05:40:48.291Z,7.20
2023-02-26T05:44:44.684Z,7.16
2023-02-26T05:48:45.905Z,7.12
2023-02-26T05:52:43.619Z,7.15
2023-02-26T05:56:43.161Z,7.21
2023-02-26T06:00:38.511Z,7.40
2023-02-26T06:04:37.833Z,7.43
2023-02-26T06:08:33.854Z,7.35
2023-02-26T06:12:33.515Z,7.29
2023-02-26T06:16:27.271Z,7.38
2023-02-26T06:20:28.108Z,7.37
2023-02-26T06:24:23.904Z,7.29
2023-02-26T06:28:22.804Z,7.18
2023-02-26T06:32:28.932Z,7.29
2023-02-26T06:36:30.802Z,7.28
2023-02-26T06:40:26.691Z,7.43
2023-02-26T06:44:27.330Z,7.54
2023-02-26T06:48:23.770Z,7.50
2023-02-26T06:52:21.618Z,7.51
2023-02-26T06:56:15.368Z,7.66
2023-02-26T07:00:16.562Z,7.80
2023-02-26T07:04:12.692Z,7.84
2023-02-26T07:08:15.055Z,7.77
2023-02-26T07:12:21.941Z,7.86
2023-02-26T07:16:21.795Z,7.73
2023-02-26T07:20:26.077Z,7.62
2023-02-26T07:24:29.418Z,7.69
2023-02-26T07:28:31.666Z,7.75
2023-02-26T07:32:35.858Z,7.81
2023-02-26T07:36:39.090Z,7.79
2023-02-26T07:40:52.757Z,7.84
2023-02-26T07:44:59.594Z,8.03
2023-02-26T07:48:55.746Z,8.19
2023-02-26T07:52:56.373Z,8.15
2023-02-26T07:56:58.969Z,8.28
2023-02-26T08:05:34.074Z,8.24
2023-02-26T08:09:36.471Z,8.28
2023-02-26T08:13:49.182Z,8.37
2023-02-26T08:17:53.322Z,8.46
2023-02-26T08:22:15.170Z,8.54
2023-02-26T08:26:22.728Z,8.52
2023-02-26T08:30:39.908Z,8.38
2023-02-26T08:34:42.513Z,8.36
2023-02-26T08:39:05.326Z,8.35
2023-02-26T08:43:09.485Z,8.45
2023-02-26T08:52:42.631Z,8.45
2023-02-26T09:00:12.749Z,8.43
2023-02-26T09:00:27.598Z,8.48
2023-02-26T09:01:54.057Z,8.61
2023-02-26T09:05:55.999Z,8.49
2023-02-26T09:09:57.688Z,8.69
2023-02-26T09:13:57.972Z,8.84
2023-02-26T09:18:04.636Z,8.80
2023-02-26T09:22:01.083Z,8.79
2023-02-26T09:25:58.901Z,8.71
2023-02-26T09:29:58.310Z,8.75
2023-02-26T09:33:54.158Z,8.88
2023-02-26T09:37:53.963Z,8.75
2023-02-26T09:41:50.043Z,8.53
2023-02-26T09:45:49.534Z,8.68
2023-02-26T09:49:46.232Z,8.73
2023-02-26T09:53:46.467Z,8.75
2023-02-26T09:57:42.992Z,8.84
2023-02-26T10:01:42.119Z,8.99
2023-02-26T10:05:38.077Z,9.06
2023-02-26T10:09:39.628Z,9.05
2023-02-26T10:13:38.512Z,9.03
2023-02-26T10:17:41.370Z,8.93
2023-02-26T10:21:39.038Z,9.07
2023-02-26T10:25:41.852Z,9.06
2023-02-26T10:29:38.015Z,9.11
2023-02-26T10:33:39.033Z,9.19
2023-02-26T10:37:35.153Z,8.96
2023-02-26T10:41:34.132Z,8.71
2023-02-26T10:45:30.321Z,8.83
2023-02-26T10:49:30.069Z,8.94
2023-02-26T10:53:23.720Z,8.92
2023-02-26T10:57:23.037Z,8.92
2023-02-26T11:01:16.488Z,9.00
2023-02-26T11:05:16.185Z,9.03
2023-02-26T11:09:11.161Z,9.15
2023-02-26T11:13:10.353Z,9.20
2023-02-26T11:17:05.711Z,9.15
2023-02-26T11:21:05.255Z,9.17
2023-02-26T11:25:05.911Z,9.07
2023-02-26T11:29:05.425Z,9.14
2023-02-26T11:33:01.231Z,9.22
2023-02-26T11:37:01.353Z,9.22
2023-02-26T11:40:57.213Z,9.19
2023-02-26T11:44:57.103Z,9.17
2023-02-26T11:48:53.244Z,9.07
2023-02-26T11:52:55.233Z,8.90
2023-02-26T11:56:51.456Z,8.91
2023-02-26T12:00:54.187Z,8.95
2023-02-26T12:04:52.384Z,8.80
2023-02-26T12:08:56.341Z,8.97
2023-02-26T12:12:52.286Z,8.93
2023-02-26T12:16:44.193Z,8.89
2023-02-26T12:20:31.064Z,8.64
2023-02-26T12:24:19.215Z,8.70
2023-02-26T12:28:04.112Z,8.75
2023-02-26T12:31:49.680Z,8.61
2023-02-26T12:35:35.341Z,8.75
2023-02-26T12:39:20.694Z,8.85
2023-02-26T12:43:11.965Z,9.04
2023-02-26T12:47:03.335Z,8.90
2023-02-26T12:50:56.641Z,8.94
2023-02-26T12:54:54.530Z,9.03
2023-02-26T12:58:51.211Z,9.03
2023-02-26T13:02:52.444Z,8.98
2023-02-26T13:06:50.422Z,9.02
2023-02-26T13:10:50.440Z,9.03
2023-02-26T13:14:48.537Z,9.11
2023-02-26T13:18:50.450Z,9.19
2023-02-26T13:22:48.575Z,9.13
2023-02-26T13:26:50.406Z,9.10
2023-02-26T13:30:48.454Z,9.15
2023-02-26T13:34:39.092Z,9.14
2023-02-26T13:38:24.206Z,9.12
2023-02-26T13:42:12.993Z,9.10
2023-02-26T13:45:58.415Z,9.08
2023-02-26T13:49:44.320Z,9.14
2023-02-26T13:53:29.979Z,9.21
2023-02-26T13:57:15.952Z,9.01
2023-02-26T14:01:01.210Z,8.99
2023-02-26T14:04:54.016Z,8.90
2023-02-26T14:08:39.470Z,8.93
2023-02-26T14:12:29.279Z,8.81
2023-02-26T14:16:20.446Z,8.80
2023-02-26T14:20:06.073Z,8.80
2023-02-26T14:23:51.464Z,8.73
2023-02-26T14:27:42.573Z,8.94
2023-02-26T14:31:34.776Z,8.91
2023-02-26T14:35:35.035Z,8.75
2023-02-26T14:39:37.190Z,8.62
2023-02-26T14:43:39.548Z,8.59
2023-02-26T14:47:41.683Z,8.64
2023-02-26T14:51:39.656Z,8.36
2023-02-26T14:55:41.596Z,8.36
2023-02-26T14:59:37.406Z,8.36
2023-02-26T15:03:25.668Z,8.28
2023-02-26T15:07:07.684Z,8.43
2023-02-26T15:10:45.437Z,8.45
2023-02-26T15:14:20.469Z,8.25
2023-02-26T15:17:56.991Z,8.24
2023-02-26T15:21:35.018Z,8.47
2023-02-26T15:25:19.873Z,8.43
2023-02-26T15:28:48.676Z,8.52
2023-02-26T15:32:25.323Z,8.44
2023-02-26T15:35:58.752Z,8.26
2023-02-26T15:39:35.194Z,8.17
2023-02-26T15:43:08.024Z,8.11
2023-02-26T15:46:45.336Z,8.11
2023-02-26T15:50:17.848Z,8.15
2023-02-26T15:53:55.023Z,8.10
2023-02-26T15:57:27.827Z,8.24
2023-02-26T16:01:04.479Z,8.21
2023-02-26T16:04:39.588Z,8.19
2023-02-26T16:08:19.739Z,8.18
2023-02-26T16:11:58.709Z,8.30
2023-02-26T16:15:43.742Z,8.26
2023-02-26T16:19:21.899Z,8.13
2023-02-26T16:23:04.240Z,7.87
2023-02-26T16:26:41.760Z,7.81
2023-02-26T16:30:22.727Z,7.88
2023-02-26T16:34:00.863Z,8.10
2023-02-26T16:37:41.808Z,7.97
2023-02-26T16:41:18.748Z,7.93
2023-02-26T16:44:59.636Z,7.90
2023-02-26T16:48:41.758Z,7.85
2023-02-26T16:52:22.719Z,7.89
2023-02-26T16:56:00.794Z,7.85
2023-02-26T16:59:42.762Z,7.78
2023-02-26T17:03:20.009Z,7.77
2023-02-26T17:07:01.715Z,7.80
2023-02-26T17:10:39.943Z,7.76
2023-02-26T17:14:21.267Z,7.66
2023-02-26T17:17:58.881Z,7.34
2023-02-26T17:21:39.082Z,7.45
2023-02-26T17:25:21.816Z,7.52
2023-02-26T17:28:59.767Z,7.53
2023-02-26T17:32:43.941Z,7.54
2023-02-26T17:36:21.747Z,7.46
2023-02-26T17:40:03.395Z,7.25
2023-02-26T17:43:44.778Z,7.28
2023-02-26T17:47:25.902Z,7.15
2023-02-26T17:51:03.941Z,7.09
2023-02-26T17:54:45.389Z,6.92
2023-02-26T17:58:24.326Z,6.95
2023-02-26T18:02:04.453Z,6.98
2023-02-26T18:05:40.518Z,6.84
2023-02-26T18:09:19.120Z,6.83
2023-02-26T18:12:54.803Z,6.80
2023-02-26T18:16:33.654Z,6.78
2023-02-26T18:20:09.830Z,6.74
2023-02-26T18:23:48.691Z,6.76
2023-02-26T18:27:23.962Z,6.63
2023-02-26T18:31:03.002Z,6.53
2023-02-26T18:34:40.668Z,6.44
2023-02-26T18:38:19.854Z,6.34
2023-02-26T18:41:54.691Z,6.25
2023-02-26T18:45:34.082Z,6.32
2023-02-26T18:49:10.077Z,6.18
2023-02-26T18:52:49.158Z,6.01
2023-02-26T18:56:24.902Z,5.92
2023-02-26T19:00:03.791Z,5.95
2023-02-26T19:03:40.265Z,5.97
2023-02-26T19:07:19.388Z,5.80
2023-02-26T19:10:55.196Z,5.81
2023-02-26T19:14:40.641Z,5.86
2023-02-26T19:18:16.099Z,5.85
2023-02-26T19:21:54.684Z,5.64
2023-02-26T19:25:34.661Z,5.58
2023-02-26T19:29:12.917Z,5.67
2023-02-26T19:32:48.852Z,5.52
2023-02-26T19:36:27.743Z,5.49
2023-02-26T19:40:03.050Z,5.42
2023-02-26T19:43:42.602Z,5.37
2023-02-26T19:47:17.998Z,5.36
2023-02-26T19:50:57.035Z,5.50
2023-02-26T19:54:32.969Z,5.32
2023-02-26T19:58:12.050Z,5.18
2023-02-26T20:01:48.080Z,5.27
2023-02-26T20:05:25.778Z,5.23
2023-02-26T20:09:05.081Z,5.26
2023-02-26T20:12:41.022Z,5.41
2023-02-26T20:16:20.497Z,5.38
2023-02-26T20:19:56.083Z,5.40
2023-02-26T20:23:36.153Z,5.30
2023-02-26T20:27:12.306Z,5.35
2023-02-26T20:30:51.555Z,5.32
2023-02-26T20:34:27.140Z,5.36
2023-02-26T20:38:05.822Z,5.31
2023-02-26T20:41:42.746Z,5.29
2023-02-26T20:45:22.160Z,5.25
2023-02-26T20:48:57.756Z,5.25
2023-02-26T20:52:36.578Z,5.22
2023-02-26T20:56:11.903Z,5.30
2023-02-26T20:59:51.082Z,5.33
2023-02-26T21:03:27.112Z,5.37
2023-02-26T21:07:06.559Z,5.28
2023-02-26T21:10:42.933Z,5.52
2023-02-26T21:14:22.711Z,5.39
2023-02-26T21:17:57.700Z,5.45
2023-02-26T21:21:29.385Z,5.43
2023-02-26T21:25:06.202Z,5.48
2023-02-26T21:28:45.967Z,5.22
2023-02-26T21:32:21.278Z,5.26
2023-02-26T21:35:53.217Z,5.29
2023-02-26T21:39:27.850Z,5.41
2023-02-26T21:42:59.303Z,5.53
2023-02-26T21:46:23.929Z,5.59
2023-02-26T21:49:48.539Z,5.47
2023-02-26T21:53:22.360Z,5.44
2023-02-26T21:56:59.941Z,5.38
2023-02-26T22:00:34.753Z,5.20
2023-02-26T22:04:12.213Z,5.05
2023-02-26T22:07:49.042Z,4.92
2023-02-26T22:11:29.367Z,5.21
2023-02-26T22:15:10.643Z,5.18
2023-02-26T22:18:44.901Z,5.19
2023-02-26T22:22:17.787Z,5.22
2023-02-26T22:25:50.350Z,5.13
2023-02-26T22:29:15.343Z,5.18
2023-02-26T22:32:39.710Z,5.21
2023-02-26T22:36:12.624Z,5.26
2023-02-26T22:39:49.815Z,5.36
2023-02-26T22:43:25.341Z,5.26
2023-02-26T22:47:02.766Z,5.12
2023-02-26T22:50:38.381Z,5.27
2023-02-26T22:54:16.004Z,5.28
2023-02-26T22:57:51.102Z,5.41
2023-02-26T23:01:28.924Z,5.49
2023-02-26T23:05:04.300Z,5.48
2023-02-26T23:08:43.365Z,5.53
2023-02-26T23:12:18.828Z,5.63
2023-02-26T23:15:56.368Z,5.48
2023-02-26T23:19:32.432Z,5.48
2023-02-26T23:23:10.317Z,5.32
2023-02-26T23:26:45.253Z,5.28
2023-02-26T23:30:27.384Z,5.31
2023-02-26T23:34:03.169Z,5.26
2023-02-26T23:37:43.087Z,5.39
2023-02-26T23:41:18.169Z,5.45
2023-02-26T23:44:56.060Z,5.33
2023-02-26T23:48:31.399Z,5.35
2023-02-26T23:52:15.075Z,5.53
2023-02-26T23:55:47.931Z,5.35
2023-02-26T23:59:04.311Z,5.38
